Huvudsida
METAR-TAF:

METAR-TAF

Flygplatser :

Ørsta-Volda flygplats. Hovden

Ørsta-Volda, Norge

latitud: 62-11N, longitud: 006-04E, höjd: 7 m

Aktuellt väderrapport

Denna rapport gjordes för 34 minuter sedan, klockan 17:50 UTC
Vind 6 kt varierande vindriktning
Temperatur 6°C
Fuktighet 70%
Tryck 964 hPa
Sikt 10 km eller mer
Få moln på en höjd av 1500 ft
Spridda moln på en höjd av 2600 ft
Brutna moln på en höjd av 4400 ft
lätt regn, duggregn

METAR: ENOV 081750Z VRB06KT 9999 -RADZ FEW015 SCT026 BKN044 06/01 Q0964 RMK WIND 2175FT 19023KT

Tid: 19:24 (18:24 UTC)


TAF: saknas

Aktuella väderrapporter och prognoser från 4000 flygplatser (METAR- och TAF-rapporter).

De tillgängliga stationerna syns som gula och röda prickar på kartan.

För musen över prickarna för att se namnen på stationerna.

Klicka sedan för att få väderrapporter och prognoser.

För att ändra kartan: Klicka på de gröna knapparna med ett svart kors på för att zooma in; den gröna knappen med ett streck på för att zooma ut; eller på de gröna pilarna för angränsande kartor.


METAR-TAF: